createdAt,value
2022-08-20T00:00:46.592Z,5.30
2022-08-20T00:03:33.886Z,6.18
2022-08-20T00:06:18.591Z,5.30
2022-08-20T00:08:46.600Z,5.75
2022-08-20T00:11:19.758Z,5.90
2022-08-20T00:13:53.796Z,5.22
2022-08-20T00:16:23.561Z,6.28
2022-08-20T00:18:51.076Z,5.18
2022-08-20T00:21:21.107Z,6.00
2022-08-20T00:23:55.651Z,6.68
2022-08-20T00:26:24.988Z,6.55
2022-08-20T00:28:52.675Z,5.85
2022-08-20T00:31:23.155Z,6.85
2022-08-20T00:33:51.454Z,7.07
2022-08-20T00:36:19.570Z,6.53
2022-08-20T00:38:47.334Z,6.63
2022-08-20T00:41:20.129Z,5.63
2022-08-20T00:43:53.337Z,5.93
2022-08-20T00:46:31.483Z,5.70
2022-08-20T00:49:01.731Z,5.00
2022-08-20T00:51:41.388Z,6.03
2022-08-20T00:54:31.286Z,5.38
2022-08-20T00:57:03.917Z,4.57
2022-08-20T00:59:35.532Z,5.80
2022-08-20T01:02:07.564Z,4.93
2022-08-20T01:04:35.915Z,5.43
2022-08-20T01:07:05.322Z,5.80
2022-08-20T01:09:58.174Z,5.47
2022-08-20T01:12:23.601Z,5.80
2022-08-20T01:14:51.025Z,5.70
2022-08-20T01:17:24.847Z,5.50
2022-08-20T01:20:04.298Z,5.40
2022-08-20T01:23:04.681Z,5.95
2022-08-20T01:25:57.737Z,6.45
2022-08-20T01:28:32.140Z,6.38
2022-08-20T01:30:59.211Z,6.97
2022-08-20T01:33:26.652Z,7.47
2022-08-20T01:35:53.987Z,6.90
2022-08-20T01:38:21.880Z,7.78
2022-08-20T01:41:37.043Z,5.97
2022-08-20T01:44:04.840Z,6.32
2022-08-20T01:46:44.086Z,5.93
2022-08-20T01:49:35.292Z,6.55
2022-08-20T01:52:08.460Z,5.88
2022-08-20T01:54:36.090Z,6.05
2022-08-20T01:57:14.622Z,6.47
2022-08-20T01:59:43.073Z,6.18
2022-08-20T02:02:12.900Z,5.88
2022-08-20T02:04:41.225Z,6.20
2022-08-20T02:07:16.662Z,5.68
2022-08-20T02:09:45.277Z,5.68
2022-08-20T02:12:14.286Z,6.07
2022-08-20T02:14:46.740Z,5.43
2022-08-20T02:17:15.014Z,5.13
2022-08-20T02:19:48.236Z,6.45
2022-08-20T02:22:44.243Z,6.30
2022-08-20T02:25:21.073Z,6.30
2022-08-20T02:27:52.566Z,6.53
2022-08-20T02:30:27.795Z,5.80
2022-08-20T02:32:59.818Z,5.18
2022-08-20T02:35:28.301Z,6.32
2022-08-20T02:37:55.817Z,6.07
2022-08-20T02:40:27.222Z,6.13
2022-08-20T02:42:59.729Z,4.90
2022-08-20T02:45:28.353Z,4.55
2022-08-20T02:47:56.806Z,5.85
2022-08-20T02:50:26.206Z,5.30
2022-08-20T02:52:53.291Z,5.60
2022-08-20T02:55:28.006Z,5.78
2022-08-20T02:58:00.347Z,5.93
2022-08-20T03:00:38.077Z,5.40
2022-08-20T03:03:10.440Z,5.43
2022-08-20T03:05:40.157Z,5.57
2022-08-20T03:08:10.946Z,4.70
2022-08-20T03:10:41.214Z,4.90
2022-08-20T03:13:12.390Z,5.55
2022-08-20T03:15:50.040Z,5.43
2022-08-20T03:18:19.826Z,5.78
2022-08-20T03:20:52.266Z,5.43
2022-08-20T03:23:20.932Z,6.20
2022-08-20T03:25:48.940Z,4.93
2022-08-20T03:28:17.381Z,4.22
2022-08-20T03:30:45.088Z,6.47
2022-08-20T03:33:12.380Z,5.63
2022-08-20T03:35:39.599Z,4.97
2022-08-20T03:38:13.064Z,5.57
2022-08-20T03:40:41.203Z,5.43
2022-08-20T03:43:10.111Z,6.30
2022-08-20T03:45:39.954Z,6.30
2022-08-20T03:48:09.595Z,5.80
2022-08-20T03:50:36.958Z,5.60
2022-08-20T03:53:04.478Z,5.82
2022-08-20T03:55:32.444Z,5.95
2022-08-20T03:58:06.184Z,5.97
2022-08-20T04:00:49.654Z,6.25
2022-08-20T04:03:17.482Z,6.13
2022-08-20T04:05:45.593Z,5.60
2022-08-20T04:08:29.435Z,6.22
2022-08-20T04:10:57.768Z,6.70
2022-08-20T04:13:27.069Z,6.22
2022-08-20T04:15:57.679Z,5.30
2022-08-20T04:18:26.473Z,6.57
2022-08-20T04:20:54.238Z,6.30
2022-08-20T04:23:22.574Z,6.40
2022-08-20T04:25:50.397Z,6.60
2022-08-20T04:28:28.135Z,7.55
2022-08-20T04:30:59.024Z,6.45
2022-08-20T04:33:33.855Z,6.60
2022-08-20T04:36:05.575Z,7.25
2022-08-20T04:38:47.790Z,6.65
2022-08-20T04:41:22.639Z,6.30
2022-08-20T04:43:51.741Z,5.32
2022-08-20T04:46:19.425Z,5.60
2022-08-20T04:48:50.201Z,6.50
2022-08-20T04:51:18.580Z,6.13
2022-08-20T04:53:52.145Z,7.20
2022-08-20T04:56:24.190Z,6.32
2022-08-20T04:58:54.282Z,6.45
2022-08-20T05:01:23.750Z,6.10
2022-08-20T05:03:51.244Z,5.80
2022-08-20T05:06:18.891Z,5.18
2022-08-20T05:08:46.179Z,6.15
2022-08-20T05:11:32.721Z,5.13
2022-08-20T05:14:01.471Z,5.03
2022-08-20T05:16:28.379Z,5.25
2022-08-20T05:18:55.369Z,5.22
2022-08-20T05:21:23.012Z,5.00
2022-08-20T05:23:50.015Z,5.40
2022-08-20T05:26:20.240Z,5.90
2022-08-20T05:28:54.176Z,5.68
2022-08-20T05:31:31.630Z,5.15
2022-08-20T05:34:15.937Z,6.20
2022-08-20T05:36:50.687Z,5.90
2022-08-20T05:39:22.669Z,6.25
2022-08-20T05:41:52.199Z,6.68
2022-08-20T05:44:20.878Z,6.68
2022-08-20T05:46:49.567Z,6.55
2022-08-20T05:49:21.443Z,6.03
2022-08-20T05:51:51.613Z,6.45
2022-08-20T05:54:19.500Z,5.10
2022-08-20T05:56:49.169Z,6.00
2022-08-20T05:59:25.565Z,6.05
2022-08-20T06:01:54.142Z,6.10
2022-08-20T06:04:25.061Z,6.50
2022-08-20T06:07:03.668Z,6.22
2022-08-20T06:09:32.727Z,5.78
2022-08-20T06:12:06.514Z,6.13
2022-08-20T06:14:34.027Z,7.30
2022-08-20T06:17:15.615Z,6.20
2022-08-20T06:19:45.272Z,7.00
2022-08-20T06:22:18.833Z,6.57
2022-08-20T06:24:49.771Z,6.32
2022-08-20T06:27:17.460Z,6.30
2022-08-20T06:29:44.440Z,5.95
2022-08-20T06:32:11.811Z,5.63
2022-08-20T06:34:50.423Z,5.47
2022-08-20T06:37:31.221Z,6.65
2022-08-20T06:40:15.239Z,5.45
2022-08-20T06:42:48.124Z,5.45
2022-08-20T06:45:25.737Z,6.30
2022-08-20T06:47:55.993Z,5.07
2022-08-20T06:50:43.200Z,5.00
2022-08-20T06:53:20.685Z,5.90
2022-08-20T06:55:53.547Z,4.45
2022-08-20T06:58:37.448Z,4.68
2022-08-20T07:01:09.216Z,4.57
2022-08-20T07:03:55.719Z,4.40
2022-08-20T07:08:56.779Z,4.43
2022-08-20T07:11:28.070Z,4.63
2022-08-20T07:13:58.265Z,4.28
2022-08-20T07:16:25.578Z,4.07
2022-08-20T07:18:52.494Z,4.43
2022-08-20T07:21:19.374Z,4.20
2022-08-20T07:23:48.905Z,3.47
2022-08-20T07:26:16.232Z,3.85
2022-08-20T07:28:43.169Z,4.05
2022-08-20T07:31:29.050Z,3.85
2022-08-20T07:33:58.781Z,3.90
2022-08-20T07:36:28.016Z,4.65
2022-08-20T07:38:56.909Z,3.88
2022-08-20T07:41:24.660Z,3.65
2022-08-20T07:43:51.595Z,3.38
2022-08-20T07:46:21.458Z,4.55
2022-08-20T07:48:51.355Z,3.38
2022-08-20T07:51:22.130Z,4.70
2022-08-20T07:53:51.618Z,2.97
2022-08-20T07:56:22.510Z,2.60
2022-08-20T07:58:55.365Z,2.25
2022-08-20T08:01:30.392Z,1.95
2022-08-20T08:03:59.168Z,3.90
2022-08-20T08:06:29.632Z,3.90
2022-08-20T08:09:10.441Z,3.22
2022-08-20T08:11:47.275Z,1.67
2022-08-20T08:14:17.216Z,2.65
2022-08-20T08:16:45.653Z,1.85
2022-08-20T08:19:15.866Z,3.80
2022-08-20T08:21:44.237Z,1.98
2022-08-20T08:24:14.341Z,1.60
2022-08-20T08:26:44.430Z,1.60
2022-08-20T08:29:12.033Z,1.17
2022-08-20T08:31:40.923Z,1.85
2022-08-20T08:34:08.379Z,1.30
2022-08-20T08:36:35.272Z,1.85
2022-08-20T08:39:02.172Z,1.73
2022-08-20T08:41:32.108Z,1.60
2022-08-20T08:44:21.201Z,1.95
2022-08-20T08:46:49.532Z,1.17
2022-08-20T08:49:22.463Z,1.60
2022-08-20T08:51:58.373Z,2.03
2022-08-20T08:54:30.289Z,2.13
2022-08-20T08:56:59.499Z,1.80
2022-08-20T08:59:30.694Z,1.45
2022-08-20T09:02:26.021Z,2.08
2022-08-20T09:04:56.534Z,3.30
2022-08-20T09:07:27.752Z,1.83
2022-08-20T09:09:54.810Z,4.53
2022-08-20T09:12:25.695Z,3.08
2022-08-20T09:14:52.665Z,2.47
2022-08-20T09:17:22.689Z,1.65
2022-08-20T09:19:52.128Z,1.55
2022-08-20T09:22:23.430Z,2.25
2022-08-20T09:24:50.512Z,1.20
2022-08-20T09:27:18.027Z,1.58
2022-08-20T09:29:45.193Z,1.42
2022-08-20T09:32:22.043Z,1.70
2022-08-20T09:34:55.845Z,2.38
2022-08-20T09:37:29.273Z,1.20
2022-08-20T09:39:59.417Z,1.20
2022-08-20T09:42:36.185Z,1.02
2022-08-20T09:45:10.937Z,1.17
2022-08-20T09:47:43.848Z,1.35
2022-08-20T09:50:22.418Z,1.85
2022-08-20T09:52:52.875Z,1.10
2022-08-20T09:55:36.775Z,1.13
2022-08-20T09:58:13.105Z,1.60
2022-08-20T10:00:40.401Z,3.50
2022-08-20T10:03:07.368Z,1.10
2022-08-20T10:05:34.462Z,1.52
2022-08-20T10:08:10.893Z,1.30
2022-08-20T10:10:37.980Z,1.50
2022-08-20T10:13:05.239Z,1.80
2022-08-20T10:15:32.838Z,1.55
2022-08-20T10:18:05.468Z,1.90
2022-08-20T10:20:32.683Z,1.33
2022-08-20T10:22:59.802Z,1.77
2022-08-20T10:25:26.821Z,2.05
2022-08-20T10:27:53.733Z,1.80
2022-08-20T10:30:20.849Z,2.05
2022-08-20T10:32:48.654Z,1.23
2022-08-20T10:35:15.606Z,1.73
2022-08-20T10:37:42.485Z,0.88
2022-08-20T10:40:11.015Z,2.03
2022-08-20T10:42:42.515Z,1.25
2022-08-20T10:45:12.075Z,1.67
2022-08-20T10:47:39.421Z,1.00
2022-08-20T10:50:11.153Z,1.88
2022-08-20T10:52:38.160Z,0.95
2022-08-20T10:55:06.277Z,1.15
2022-08-20T10:57:33.838Z,1.40
2022-08-20T11:00:01.643Z,1.40
2022-08-20T11:02:29.865Z,0.95
2022-08-20T11:04:57.155Z,1.05
2022-08-20T11:07:55.565Z,1.83
2022-08-20T11:10:17.661Z,1.25
2022-08-20T11:12:46.063Z,0.90
2022-08-20T11:15:14.699Z,2.38
2022-08-20T11:17:43.867Z,2.17
2022-08-20T11:20:15.657Z,1.17
2022-08-20T11:22:42.620Z,1.27
2022-08-20T11:25:10.388Z,1.10
2022-08-20T11:27:41.995Z,0.75
2022-08-20T11:30:13.945Z,1.15
2022-08-20T11:32:42.092Z,1.25
2022-08-20T11:35:38.514Z,0.80
2022-08-20T11:37:58.539Z,1.88
2022-08-20T11:40:27.172Z,1.00
2022-08-20T11:43:13.697Z,1.25
2022-08-20T11:45:40.931Z,0.80
2022-08-20T11:48:07.974Z,0.98
2022-08-20T11:50:34.879Z,4.93
2022-08-20T11:53:01.862Z,1.00
2022-08-20T11:55:30.582Z,3.15
2022-08-20T11:57:59.822Z,0.95
2022-08-20T12:00:32.918Z,1.40
2022-08-20T12:03:08.685Z,0.90
2022-08-20T12:05:41.565Z,1.83
2022-08-20T12:08:09.241Z,1.13
2022-08-20T12:10:37.557Z,1.88
2022-08-20T12:13:06.052Z,1.75
2022-08-20T12:15:36.250Z,1.23
2022-08-20T12:18:07.952Z,1.40
2022-08-20T12:20:36.027Z,1.65
2022-08-20T12:23:03.633Z,1.45
2022-08-20T12:25:30.621Z,1.15
2022-08-20T12:27:57.717Z,1.30
2022-08-20T12:30:25.578Z,1.30
2022-08-20T12:32:52.575Z,0.98
2022-08-20T12:35:20.346Z,1.05
2022-08-20T12:37:47.538Z,1.10
2022-08-20T12:40:24.508Z,0.82
2022-08-20T12:43:01.484Z,1.20
2022-08-20T12:45:28.725Z,1.55
2022-08-20T12:48:09.461Z,1.63
2022-08-20T12:50:37.957Z,1.50
2022-08-20T12:53:05.749Z,0.85
2022-08-20T12:55:33.134Z,0.88
2022-08-20T12:58:02.490Z,1.17
2022-08-20T13:00:43.189Z,1.10
2022-08-20T13:03:12.342Z,0.70
2022-08-20T13:05:40.676Z,1.13
2022-08-20T13:08:11.581Z,1.05
2022-08-20T13:10:45.406Z,0.77
2022-08-20T13:13:20.494Z,0.80
2022-08-20T13:15:50.071Z,0.82
2022-08-20T13:18:17.319Z,1.30
2022-08-20T13:20:44.772Z,1.15
2022-08-20T13:23:11.726Z,1.27
2022-08-20T13:25:38.621Z,0.82
2022-08-20T13:28:06.090Z,1.10
2022-08-20T13:30:37.295Z,1.98
2022-08-20T13:33:04.467Z,1.23
2022-08-20T13:35:31.621Z,0.95
2022-08-20T13:37:58.749Z,1.10
2022-08-20T13:40:26.003Z,1.25
2022-08-20T13:42:53.383Z,0.98
2022-08-20T13:45:22.980Z,1.17
2022-08-20T13:47:54.868Z,1.50
2022-08-20T13:50:25.328Z,1.00
2022-08-20T13:52:52.673Z,1.27
2022-08-20T13:55:22.866Z,1.27
2022-08-20T13:57:51.096Z,0.98
2022-08-20T14:00:30.825Z,0.90
2022-08-20T14:03:03.185Z,1.52
2022-08-20T14:05:31.410Z,1.00
2022-08-20T14:08:07.556Z,0.90
2022-08-20T14:10:35.681Z,1.20
2022-08-20T14:13:03.410Z,1.70
2022-08-20T14:15:30.811Z,1.10
2022-08-20T14:17:58.475Z,1.00
2022-08-20T14:20:32.993Z,1.48
2022-08-20T14:23:01.483Z,1.37
2022-08-20T14:25:30.382Z,1.65
2022-08-20T14:27:57.589Z,1.63
2022-08-20T14:30:29.270Z,1.85
2022-08-20T14:32:56.926Z,1.10
2022-08-20T14:35:24.171Z,1.17
2022-08-20T14:37:56.526Z,1.23
2022-08-20T14:40:26.128Z,1.10
2022-08-20T14:42:53.408Z,1.42
2022-08-20T14:45:22.054Z,1.15
2022-08-20T14:47:56.969Z,1.27
2022-08-20T14:50:33.556Z,2.58
2022-08-20T14:53:02.117Z,1.20
2022-08-20T14:55:37.293Z,1.10
2022-08-20T15:00:39.779Z,1.30
2022-08-20T15:03:06.906Z,1.80
2022-08-20T15:05:34.779Z,1.38
2022-08-20T15:08:07.389Z,1.33
2022-08-20T15:10:34.380Z,1.20
2022-08-20T15:13:01.439Z,1.80
2022-08-20T15:15:28.572Z,2.50
2022-08-20T15:18:00.263Z,1.73
2022-08-20T15:20:31.172Z,1.23
2022-08-20T15:22:59.098Z,1.20
2022-08-20T15:25:37.071Z,1.55
2022-08-20T15:28:08.437Z,1.55
2022-08-20T15:30:37.794Z,1.35
2022-08-20T15:33:04.823Z,1.90
2022-08-20T15:35:32.471Z,1.85
2022-08-20T15:37:59.823Z,1.67
2022-08-20T15:40:31.147Z,1.85
2022-08-20T15:43:00.344Z,1.30
2022-08-20T15:45:27.420Z,1.40
2022-08-20T15:48:03.386Z,1.70
2022-08-20T15:50:56.787Z,1.80
2022-08-20T15:53:52.136Z,1.52
2022-08-20T15:56:50.703Z,1.42
2022-08-20T15:59:56.061Z,2.08
2022-08-20T16:02:38.774Z,1.30
2022-08-20T16:05:42.629Z,1.00
2022-08-20T16:08:36.901Z,1.80
2022-08-20T16:11:34.750Z,1.00
2022-08-20T16:14:26.704Z,1.38
2022-08-20T16:17:05.069Z,2.97
2022-08-20T16:20:11.183Z,1.23
2022-08-20T16:22:43.657Z,1.33
2022-08-20T16:25:13.268Z,1.80
2022-08-20T16:28:28.100Z,1.20
2022-08-20T16:31:13.924Z,1.73
2022-08-20T16:33:57.990Z,1.27
2022-08-20T16:36:58.875Z,1.58
2022-08-20T16:39:42.306Z,1.50
2022-08-20T16:42:10.881Z,1.30
2022-08-20T16:44:46.160Z,1.80
2022-08-20T16:50:13.121Z,1.20
2022-08-20T16:52:44.067Z,1.98
2022-08-20T16:55:13.233Z,1.42
2022-08-20T16:57:40.667Z,1.77
2022-08-20T17:00:24.753Z,1.35
2022-08-20T17:03:04.671Z,1.80
2022-08-20T17:05:37.725Z,1.52
2022-08-20T17:08:08.537Z,1.42
2022-08-20T17:11:13.872Z,1.40
2022-08-20T17:13:47.845Z,2.00
2022-08-20T17:16:14.606Z,1.70
2022-08-20T17:18:53.412Z,2.20
2022-08-20T17:21:33.343Z,2.30
2022-08-20T17:24:24.327Z,2.30
2022-08-20T17:27:06.745Z,1.48
2022-08-20T17:29:54.373Z,1.98
2022-08-20T17:32:26.249Z,1.23
2022-08-20T17:34:57.877Z,1.48
2022-08-20T17:37:33.842Z,1.98
2022-08-20T17:40:20.451Z,1.88
2022-08-20T17:43:02.044Z,3.08
2022-08-20T17:45:43.531Z,1.67
2022-08-20T17:48:16.128Z,1.17
2022-08-20T17:50:44.395Z,2.20
2022-08-20T17:53:32.259Z,1.85
2022-08-20T17:56:14.153Z,1.58
2022-08-20T17:58:57.233Z,1.50
2022-08-20T18:01:26.259Z,1.20
2022-08-20T18:03:53.966Z,1.42
2022-08-20T18:06:42.116Z,2.25
2022-08-20T18:09:50.942Z,1.10
2022-08-20T18:12:41.100Z,2.33
2022-08-20T18:15:23.797Z,1.38
2022-08-20T18:18:26.505Z,1.20
2022-08-20T18:21:35.770Z,1.30
2022-08-20T18:24:12.809Z,2.00
2022-08-20T18:27:08.944Z,1.35
2022-08-20T18:29:41.916Z,1.63
2022-08-20T18:32:36.916Z,1.42
2022-08-20T18:35:21.863Z,1.85
2022-08-20T18:37:49.240Z,1.17
2022-08-20T18:40:34.207Z,2.15
2022-08-20T18:43:13.269Z,1.70
2022-08-20T18:45:40.591Z,1.75
2022-08-20T18:48:08.292Z,1.60
2022-08-20T18:50:41.217Z,1.52
2022-08-20T18:53:19.540Z,1.20
2022-08-20T18:55:59.398Z,1.20
2022-08-20T18:58:49.940Z,1.75
2022-08-20T19:01:19.420Z,1.55
2022-08-20T19:03:52.574Z,2.05
2022-08-20T19:06:33.819Z,1.48
2022-08-20T19:09:55.871Z,1.73
2022-08-20T19:13:02.905Z,1.50
2022-08-20T19:15:32.543Z,1.45
2022-08-20T19:18:36.086Z,1.20
2022-08-20T19:21:04.054Z,1.40
2022-08-20T19:23:38.751Z,1.00
2022-08-20T19:26:25.027Z,1.17
2022-08-20T19:29:04.297Z,2.22
2022-08-20T19:31:34.724Z,1.20
2022-08-20T19:34:26.951Z,1.20
2022-08-20T19:37:35.554Z,2.08
2022-08-20T19:40:02.013Z,1.38
2022-08-20T19:42:41.475Z,1.15
2022-08-20T19:45:19.574Z,1.30
2022-08-20T19:48:27.334Z,1.45
2022-08-20T19:51:07.824Z,1.48
2022-08-20T19:53:37.071Z,1.50
2022-08-20T19:56:11.204Z,1.42
2022-08-20T19:58:40.437Z,1.45
2022-08-20T20:01:25.767Z,1.80
2022-08-20T20:04:07.642Z,1.88
2022-08-20T20:06:44.617Z,2.08
2022-08-20T20:09:19.454Z,1.48
2022-08-20T20:11:54.404Z,1.95
2022-08-20T20:14:26.243Z,2.15
2022-08-20T20:16:53.968Z,1.48
2022-08-20T20:19:28.561Z,1.00
2022-08-20T20:22:19.873Z,1.40
2022-08-20T20:25:00.294Z,1.73
2022-08-20T20:27:29.027Z,1.55
2022-08-20T20:30:10.763Z,2.33
2022-08-20T20:32:46.056Z,2.38
2022-08-20T20:35:26.953Z,1.42
2022-08-20T20:38:02.961Z,2.00
2022-08-20T20:40:51.936Z,1.95
2022-08-20T20:43:38.517Z,1.60
2022-08-20T20:46:23.927Z,1.80
2022-08-20T20:48:58.977Z,2.03
2022-08-20T20:51:38.991Z,1.30
2022-08-20T20:54:25.888Z,1.63
2022-08-20T20:57:08.862Z,1.35
2022-08-20T20:59:36.817Z,1.40
2022-08-20T21:02:04.573Z,1.55
2022-08-20T21:04:32.300Z,1.25
2022-08-20T21:07:11.968Z,2.47
2022-08-20T21:09:41.448Z,1.67
2022-08-20T21:12:11.451Z,1.95
2022-08-20T21:14:38.404Z,2.28
2022-08-20T21:17:09.590Z,1.67
2022-08-20T21:19:45.128Z,1.63
2022-08-20T21:22:12.349Z,1.80
2022-08-20T21:24:39.289Z,2.63
2022-08-20T21:27:06.867Z,1.80
2022-08-20T21:29:33.756Z,1.55
2022-08-20T21:32:01.074Z,1.20
2022-08-20T21:34:28.095Z,1.58
2022-08-20T21:36:55.760Z,1.60
2022-08-20T21:39:24.898Z,1.88
2022-08-20T21:41:51.840Z,1.70
2022-08-20T21:44:29.695Z,2.00
2022-08-20T21:46:57.663Z,2.55
2022-08-20T21:49:26.854Z,1.90
2022-08-20T21:51:54.997Z,1.73
2022-08-20T21:54:24.445Z,1.50
2022-08-20T21:57:07.114Z,1.88
2022-08-20T21:59:37.951Z,1.33
2022-08-20T22:02:05.527Z,1.60
2022-08-20T22:04:35.517Z,2.45
2022-08-20T22:07:03.810Z,1.50
2022-08-20T22:09:32.803Z,1.50
2022-08-20T22:12:04.200Z,1.45
2022-08-20T22:14:31.495Z,1.63
2022-08-20T22:16:58.953Z,1.30
2022-08-20T22:19:25.873Z,1.35
2022-08-20T22:21:55.391Z,2.10
2022-08-20T22:24:31.629Z,1.42
2022-08-20T22:26:58.673Z,1.73
2022-08-20T22:29:25.709Z,1.60
2022-08-20T22:31:52.691Z,2.30
2022-08-20T22:34:21.023Z,1.70
2022-08-20T22:36:48.973Z,1.75
2022-08-20T22:39:15.886Z,1.65
2022-08-20T22:41:43.268Z,1.50
2022-08-20T22:44:10.392Z,1.85
2022-08-20T22:46:43.634Z,1.50
2022-08-20T22:49:17.035Z,1.75
2022-08-20T22:51:44.902Z,1.63
2022-08-20T22:54:16.495Z,2.30
2022-08-20T22:56:43.404Z,1.50
2022-08-20T22:59:10.732Z,1.77
2022-08-20T23:01:38.414Z,1.55
2022-08-20T23:04:32.825Z,1.75
2022-08-20T23:07:02.360Z,2.00
2022-08-20T23:09:30.282Z,1.42
2022-08-20T23:11:57.299Z,2.05
2022-08-20T23:14:27.103Z,2.55
2022-08-20T23:17:15.395Z,2.80
2022-08-20T23:19:42.818Z,1.48
2022-08-20T23:22:09.996Z,1.60
2022-08-20T23:24:37.415Z,1.60
2022-08-20T23:27:07.810Z,1.90
2022-08-20T23:29:35.809Z,1.27
2022-08-20T23:32:03.023Z,1.52
2022-08-20T23:34:29.974Z,1.67
2022-08-20T23:36:57.626Z,1.63
2022-08-20T23:39:26.381Z,2.08
2022-08-20T23:41:55.012Z,1.77
2022-08-20T23:44:25.958Z,1.67
2022-08-20T23:47:02.164Z,1.65
2022-08-20T23:49:30.791Z,1.70
2022-08-20T23:52:00.689Z,2.00
2022-08-20T23:54:30.405Z,2.00
2022-08-20T23:56:57.656Z,1.50
2022-08-20T23:59:25.333Z,1.38
